sensor_id;sensor_type;location;lat;lon;timestamp;pressure;altitude;pressure_sealevel;temperature;humidity
18504;BME280;9381;54.244;10.074;2023-04-28T00:02:11;101422.34;;;3.14;100.00
18504;BME280;9381;54.244;10.074;2023-04-28T00:07:11;101419.22;;;3.18;100.00
18504;BME280;9381;54.244;10.074;2023-04-28T00:12:11;101416.25;;;3.04;100.00
18504;BME280;9381;54.244;10.074;2023-04-28T00:17:11;101415.31;;;3.13;100.00
18504;BME280;9381;54.244;10.074;2023-04-28T00:22:12;101408.31;;;3.12;100.00
18504;BME280;9381;54.244;10.074;2023-04-28T00:27:12;101406.72;;;3.01;100.00
18504;BME280;9381;54.244;10.074;2023-04-28T00:32:12;101405.09;;;2.91;100.00
18504;BME280;9381;54.244;10.074;2023-04-28T00:37:12;101403.47;;;2.80;100.00
18504;BME280;9381;54.244;10.074;2023-04-28T00:42:13;101398.97;;;2.81;100.00
18504;BME280;9381;54.244;10.074;2023-04-28T00:47:16;101398.47;;;2.68;100.00
18504;BME280;9381;54.244;10.074;2023-04-28T00:52:16;101389.47;;;2.69;100.00
18504;BME280;9381;54.244;10.074;2023-04-28T00:57:17;101398.22;;;2.71;100.00
18504;BME280;9381;54.244;10.074;2023-04-28T01:02:17;101391.19;;;2.70;100.00
18504;BME280;9381;54.244;10.074;2023-04-28T01:07:17;101390.19;;;2.71;100.00
18504;BME280;9381;54.244;10.074;2023-04-28T01:12:18;101386.53;;;2.72;100.00
18504;BME280;9381;54.244;10.074;2023-04-28T01:17:18;101393.44;;;2.65;100.00
18504;BME280;9381;54.244;10.074;2023-04-28T01:22:18;101391.78;;;2.64;100.00
18504;BME280;9381;54.244;10.074;2023-04-28T01:27:19;101394.53;;;2.72;100.00
18504;BME280;9381;54.244;10.074;2023-04-28T01:32:19;101396.44;;;2.79;100.00
18504;BME280;9381;54.244;10.074;2023-04-28T01:37:20;101395.63;;;2.79;100.00
18504;BME280;9381;54.244;10.074;2023-04-28T01:42:20;101393.22;;;2.76;100.00
18504;BME280;9381;54.244;10.074;2023-04-28T01:47:20;101388.56;;;2.78;100.00
18504;BME280;9381;54.244;10.074;2023-04-28T01:52:20;101391.47;;;2.67;100.00
18504;BME280;9381;54.244;10.074;2023-04-28T01:57:23;101383.53;;;2.75;100.00
18504;BME280;9381;54.244;10.074;2023-04-28T02:02:23;101380.41;;;2.79;100.00
18504;BME280;9381;54.244;10.074;2023-04-28T02:07:24;101371.63;;;2.87;100.00
18504;BME280;9381;54.244;10.074;2023-04-28T02:12:24;101367.78;;;2.99;100.00
18504;BME280;9381;54.244;10.074;2023-04-28T02:17:24;101357.81;;;2.91;100.00
18504;BME280;9381;54.244;10.074;2023-04-28T02:22:25;101365.16;;;2.89;100.00
18504;BME280;9381;54.244;10.074;2023-04-28T02:27:25;101358.22;;;2.96;100.00
18504;BME280;9381;54.244;10.074;2023-04-28T02:32:25;101356.16;;;3.08;100.00
18504;BME280;9381;54.244;10.074;2023-04-28T02:37:25;101344.16;;;3.12;100.00
18504;BME280;9381;54.244;10.074;2023-04-28T02:42:26;101351.81;;;3.07;100.00
18504;BME280;9381;54.244;10.074;2023-04-28T02:47:26;101343.16;;;3.13;100.00
18504;BME280;9381;54.244;10.074;2023-04-28T02:52:26;101345.16;;;3.11;100.00
18504;BME280;9381;54.244;10.074;2023-04-28T02:57:26;101334.09;;;3.06;100.00
18504;BME280;9381;54.244;10.074;2023-04-28T03:02:27;101333.09;;;3.07;100.00
18504;BME280;9381;54.244;10.074;2023-04-28T03:07:27;101326.91;;;3.06;100.00
18504;BME280;9381;54.244;10.074;2023-04-28T03:12:27;101328.22;;;3.02;100.00
18504;BME280;9381;54.244;10.074;2023-04-28T03:17:27;101321.34;;;3.00;100.00
18504;BME280;9381;54.244;10.074;2023-04-28T03:22:28;101303.78;;;2.97;100.00
18504;BME280;9381;54.244;10.074;2023-04-28T03:27:28;101305.47;;;2.98;100.00
18504;BME280;9381;54.244;10.074;2023-04-28T03:32:28;101297.91;;;2.94;100.00
18504;BME280;9381;54.244;10.074;2023-04-28T03:37:29;101298.22;;;2.91;100.00
18504;BME280;9381;54.244;10.074;2023-04-28T03:42:29;101296.22;;;2.93;100.00
18504;BME280;9381;54.244;10.074;2023-04-28T03:47:29;101288.28;;;3.01;100.00
18504;BME280;9381;54.244;10.074;2023-04-28T03:52:29;101278.94;;;3.05;100.00
18504;BME280;9381;54.244;10.074;2023-04-28T03:57:30;101275.31;;;3.06;100.00
18504;BME280;9381;54.244;10.074;2023-04-28T04:02:30;101268.59;;;3.02;100.00
18504;BME280;9381;54.244;10.074;2023-04-28T04:07:30;101269.25;;;3.04;100.00
18504;BME280;9381;54.244;10.074;2023-04-28T04:12:31;101264.31;;;3.09;100.00
18504;BME280;9381;54.244;10.074;2023-04-28T04:17:31;101258.97;;;3.09;100.00
18504;BME280;9381;54.244;10.074;2023-04-28T04:22:31;101254.28;;;3.11;100.00
18504;BME280;9381;54.244;10.074;2023-04-28T04:27:32;101253.00;;;3.15;100.00
18504;BME280;9381;54.244;10.074;2023-04-28T04:32:32;101242.50;;;3.21;100.00
18504;BME280;9381;54.244;10.074;2023-04-28T04:37:32;101247.91;;;3.29;100.00
18504;BME280;9381;54.244;10.074;2023-04-28T04:42:33;101244.38;;;3.29;100.00
18504;BME280;9381;54.244;10.074;2023-04-28T04:47:33;101243.66;;;3.44;100.00
18504;BME280;9381;54.244;10.074;2023-04-28T04:52:34;101238.25;;;3.62;100.00
18504;BME280;9381;54.244;10.074;2023-04-28T04:57:34;101236.31;;;3.80;100.00
18504;BME280;9381;54.244;10.074;2023-04-28T05:02:34;101219.50;;;4.03;100.00
18504;BME280;9381;54.244;10.074;2023-04-28T05:07:35;101220.56;;;4.26;100.00
18504;BME280;9381;54.244;10.074;2023-04-28T05:12:35;101217.41;;;4.47;100.00
18504;BME280;9381;54.244;10.074;2023-04-28T05:17:35;101220.44;;;4.68;100.00
18504;BME280;9381;54.244;10.074;2023-04-28T05:22:36;101211.91;;;4.88;100.00
18504;BME280;9381;54.244;10.074;2023-04-28T05:27:36;101210.38;;;5.10;100.00
18504;BME280;9381;54.244;10.074;2023-04-28T05:32:38;101196.75;;;5.27;100.00
18504;BME280;9381;54.244;10.074;2023-04-28T05:37:38;101192.34;;;5.50;100.00
18504;BME280;9381;54.244;10.074;2023-04-28T05:42:42;101191.25;;;5.75;100.00
18504;BME280;9381;54.244;10.074;2023-04-28T05:47:42;101183.22;;;6.05;100.00
18504;BME280;9381;54.244;10.074;2023-04-28T05:52:42;101174.50;;;6.34;100.00
18504;BME280;9381;54.244;10.074;2023-04-28T05:57:43;101186.59;;;6.52;100.00
18504;BME280;9381;54.244;10.074;2023-04-28T06:02:43;101174.78;;;6.61;100.00
18504;BME280;9381;54.244;10.074;2023-04-28T06:07:43;101170.78;;;6.94;100.00
18504;BME280;9381;54.244;10.074;2023-04-28T06:12:44;101176.50;;;7.14;100.00
18504;BME280;9381;54.244;10.074;2023-04-28T06:17:44;101164.00;;;7.35;100.00
18504;BME280;9381;54.244;10.074;2023-04-28T06:22:44;101171.50;;;7.54;100.00
18504;BME280;9381;54.244;10.074;2023-04-28T06:27:45;101154.66;;;7.81;100.00
18504;BME280;9381;54.244;10.074;2023-04-28T06:32:45;101157.06;;;7.91;98.80
18504;BME280;9381;54.244;10.074;2023-04-28T06:37:46;101160.28;;;8.01;97.05
18504;BME280;9381;54.244;10.074;2023-04-28T06:42:46;101152.41;;;7.99;96.82
18504;BME280;9381;54.244;10.074;2023-04-28T06:47:46;101150.13;;;8.17;96.48
18504;BME280;9381;54.244;10.074;2023-04-28T06:52:47;101143.34;;;8.42;97.82
18504;BME280;9381;54.244;10.074;2023-04-28T06:57:47;101151.44;;;8.63;93.26
18504;BME280;9381;54.244;10.074;2023-04-28T07:02:47;101148.34;;;8.93;93.15
18504;BME280;9381;54.244;10.074;2023-04-28T07:07:48;101139.66;;;9.19;92.68
18504;BME280;9381;54.244;10.074;2023-04-28T07:12:49;101135.81;;;9.41;89.25
18504;BME280;9381;54.244;10.074;2023-04-28T07:17:50;101138.81;;;9.59;87.81
18504;BME280;9381;54.244;10.074;2023-04-28T07:22:50;101126.88;;;9.81;87.24
18504;BME280;9381;54.244;10.074;2023-04-28T07:27:51;101122.88;;;10.17;85.82
18504;BME280;9381;54.244;10.074;2023-04-28T07:32:51;101120.41;;;10.29;83.18
18504;BME280;9381;54.244;10.074;2023-04-28T07:37:52;101122.50;;;10.53;81.33
18504;BME280;9381;54.244;10.074;2023-04-28T07:42:52;101130.00;;;10.77;79.81
18504;BME280;9381;54.244;10.074;2023-04-28T07:47:53;101118.78;;;10.93;78.57
18504;BME280;9381;54.244;10.074;2023-04-28T07:52:53;101117.94;;;11.05;76.50
18504;BME280;9381;54.244;10.074;2023-04-28T07:57:54;101115.16;;;11.38;76.85
18504;BME280;9381;54.244;10.074;2023-04-28T08:02:54;101097.75;;;11.77;75.26
18504;BME280;9381;54.244;10.074;2023-04-28T08:07:56;101087.31;;;11.81;72.69
18504;BME280;9381;54.244;10.074;2023-04-28T08:12:56;101093.00;;;12.10;70.87
18504;BME280;9381;54.244;10.074;2023-04-28T08:17:56;101089.88;;;12.38;68.33
18504;BME280;9381;54.244;10.074;2023-04-28T08:22:57;101089.06;;;12.37;66.13
18504;BME280;9381;54.244;10.074;2023-04-28T08:27:58;101074.25;;;12.64;67.19
18504;BME280;9381;54.244;10.074;2023-04-28T08:32:58;101072.56;;;12.63;65.06
18504;BME280;9381;54.244;10.074;2023-04-28T08:37:58;101065.75;;;12.54;62.50
18504;BME280;9381;54.244;10.074;2023-04-28T08:42:59;101071.97;;;12.61;62.04
18504;BME280;9381;54.244;10.074;2023-04-28T08:48:00;101062.06;;;12.73;61.10
18504;BME280;9381;54.244;10.074;2023-04-28T08:53:03;101061.53;;;12.83;57.54
18504;BME280;9381;54.244;10.074;2023-04-28T08:58:03;101062.69;;;12.93;58.18
18504;BME280;9381;54.244;10.074;2023-04-28T09:03:04;101059.59;;;13.14;61.18
18504;BME280;9381;54.244;10.074;2023-04-28T09:08:05;101055.97;;;13.20;56.82
18504;BME280;9381;54.244;10.074;2023-04-28T09:13:06;101054.63;;;13.29;58.20
18504;BME280;9381;54.244;10.074;2023-04-28T09:18:06;101039.31;;;13.64;57.89
18504;BME280;9381;54.244;10.074;2023-04-28T09:23:15;101031.13;;;13.82;56.47
18504;BME280;9381;54.244;10.074;2023-04-28T09:28:20;101032.13;;;14.17;58.51
18504;BME280;9381;54.244;10.074;2023-04-28T09:33:23;101024.63;;;14.54;56.09
18504;BME280;9381;54.244;10.074;2023-04-28T09:38:24;101010.75;;;15.01;55.72
18504;BME280;9381;54.244;10.074;2023-04-28T09:43:34;100998.56;;;15.15;55.09
18504;BME280;9381;54.244;10.074;2023-04-28T09:48:37;101002.84;;;15.62;54.62
18504;BME280;9381;54.244;10.074;2023-04-28T09:53:37;100989.31;;;15.67;54.35
18504;BME280;9381;54.244;10.074;2023-04-28T09:58:39;100987.75;;;16.15;53.54
18504;BME280;9381;54.244;10.074;2023-04-28T10:03:40;100977.53;;;16.72;53.88
18504;BME280;9381;54.244;10.074;2023-04-28T10:08:41;100975.44;;;16.79;49.45
18504;BME280;9381;54.244;10.074;2023-04-28T10:13:42;100961.84;;;17.22;50.54
18504;BME280;9381;54.244;10.074;2023-04-28T10:18:44;100962.56;;;17.82;50.70
18504;BME280;9381;54.244;10.074;2023-04-28T10:28:57;100943.44;;;18.44;46.31
18504;BME280;9381;54.244;10.074;2023-04-28T10:34:20;100938.50;;;18.41;46.44
18504;BME280;9381;54.244;10.074;2023-04-28T10:39:21;100921.13;;;17.99;47.53
18504;BME280;9381;54.244;10.074;2023-04-28T11:00:29;100903.28;;;18.28;47.38
18504;BME280;9381;54.244;10.074;2023-04-28T11:05:30;100911.09;;;18.10;46.81
18504;BME280;9381;54.244;10.074;2023-04-28T11:16:09;100908.09;;;17.11;48.17
18504;BME280;9381;54.244;10.074;2023-04-28T11:21:10;100899.84;;;17.06;50.32
18504;BME280;9381;54.244;10.074;2023-04-28T11:26:10;100894.59;;;16.99;47.62
18504;BME280;9381;54.244;10.074;2023-04-28T11:31:15;100894.13;;;16.86;48.09
18504;BME280;9381;54.244;10.074;2023-04-28T11:36:25;100888.41;;;17.09;48.06
18504;BME280;9381;54.244;10.074;2023-04-28T11:41:27;100888.78;;;17.39;47.74
18504;BME280;9381;54.244;10.074;2023-04-28T11:46:27;100886.44;;;17.26;46.00
18504;BME280;9381;54.244;10.074;2023-04-28T11:56:36;100870.03;;;18.41;49.01
18504;BME280;9381;54.244;10.074;2023-04-28T12:01:54;100854.38;;;18.88;45.29
18504;BME280;9381;54.244;10.074;2023-04-28T12:12:02;100858.75;;;18.01;44.92
18504;BME280;9381;54.244;10.074;2023-04-28T12:17:03;100848.13;;;18.46;45.57
18504;BME280;9381;54.244;10.074;2023-04-28T12:22:05;100842.28;;;18.84;45.19
18504;BME280;9381;54.244;10.074;2023-04-28T12:27:19;100833.72;;;18.66;44.95
18504;BME280;9381;54.244;10.074;2023-04-28T12:32:40;100824.22;;;18.83;44.98
18504;BME280;9381;54.244;10.074;2023-04-28T12:37:44;100809.94;;;18.81;44.93
18504;BME280;9381;54.244;10.074;2023-04-28T12:42:44;100817.25;;;18.56;45.52
18504;BME280;9381;54.244;10.074;2023-04-28T12:47:44;100810.75;;;18.25;45.40
18504;BME280;9381;54.244;10.074;2023-04-28T12:52:45;100821.34;;;17.76;46.97
18504;BME280;9381;54.244;10.074;2023-04-28T12:57:45;100822.88;;;17.14;48.74
18504;BME280;9381;54.244;10.074;2023-04-28T13:02:45;100818.09;;;17.26;48.76
18504;BME280;9381;54.244;10.074;2023-04-28T13:07:46;100809.56;;;17.22;48.88
18504;BME280;9381;54.244;10.074;2023-04-28T13:12:46;100811.88;;;17.09;48.57
18504;BME280;9381;54.244;10.074;2023-04-28T13:17:47;100811.34;;;16.85;49.28
18504;BME280;9381;54.244;10.074;2023-04-28T13:22:48;100804.88;;;16.70;49.64
18504;BME280;9381;54.244;10.074;2023-04-28T13:27:48;100792.19;;;16.59;50.18
18504;BME280;9381;54.244;10.074;2023-04-28T13:32:48;100795.22;;;16.24;49.95
18504;BME280;9381;54.244;10.074;2023-04-28T13:37:51;100785.34;;;16.02;51.52
18504;BME280;9381;54.244;10.074;2023-04-28T13:42:55;100792.66;;;16.18;50.54
18504;BME280;9381;54.244;10.074;2023-04-28T13:47:55;100787.78;;;16.20;51.86
18504;BME280;9381;54.244;10.074;2023-04-28T13:52:55;100772.91;;;16.11;52.34
18504;BME280;9381;54.244;10.074;2023-04-28T13:57:56;100775.78;;;15.99;51.15
18504;BME280;9381;54.244;10.074;2023-04-28T14:03:00;100771.13;;;16.00;52.24
18504;BME280;9381;54.244;10.074;2023-04-28T14:08:00;100774.38;;;15.97;51.75
18504;BME280;9381;54.244;10.074;2023-04-28T14:13:02;100767.13;;;15.86;52.32
18504;BME280;9381;54.244;10.074;2023-04-28T14:18:03;100753.28;;;15.92;52.36
18504;BME280;9381;54.244;10.074;2023-04-28T14:23:03;100752.00;;;15.62;51.10
18504;BME280;9381;54.244;10.074;2023-04-28T14:28:04;100759.09;;;15.63;52.03
18504;BME280;9381;54.244;10.074;2023-04-28T14:33:04;100752.25;;;15.44;52.13
18504;BME280;9381;54.244;10.074;2023-04-28T14:38:05;100755.81;;;15.44;51.73
18504;BME280;9381;54.244;10.074;2023-04-28T14:43:06;100746.72;;;15.39;51.85
18504;BME280;9381;54.244;10.074;2023-04-28T14:48:06;100743.19;;;15.27;54.08
18504;BME280;9381;54.244;10.074;2023-04-28T14:53:09;100741.81;;;15.24;52.72
18504;BME280;9381;54.244;10.074;2023-04-28T14:58:09;100744.03;;;15.27;53.69
18504;BME280;9381;54.244;10.074;2023-04-28T15:03:10;100735.22;;;15.37;53.14
18504;BME280;9381;54.244;10.074;2023-04-28T15:08:10;100729.34;;;15.12;55.59
18504;BME280;9381;54.244;10.074;2023-04-28T15:13:11;100734.78;;;15.12;55.35
18504;BME280;9381;54.244;10.074;2023-04-28T15:18:11;100730.69;;;14.81;55.98
18504;BME280;9381;54.244;10.074;2023-04-28T15:23:12;100723.84;;;14.68;59.30
18504;BME280;9381;54.244;10.074;2023-04-28T15:28:12;100724.59;;;14.63;59.67
18504;BME280;9381;54.244;10.074;2023-04-28T15:33:12;100720.59;;;14.54;60.56
18504;BME280;9381;54.244;10.074;2023-04-28T15:38:16;100713.50;;;14.53;63.80
18504;BME280;9381;54.244;10.074;2023-04-28T15:43:17;100716.72;;;14.78;62.51
18504;BME280;9381;54.244;10.074;2023-04-28T15:48:17;100703.28;;;14.88;61.51
18504;BME280;9381;54.244;10.074;2023-04-28T15:53:18;100713.94;;;14.89;64.70
18504;BME280;9381;54.244;10.074;2023-04-28T15:58:18;100698.63;;;14.72;66.18
18504;BME280;9381;54.244;10.074;2023-04-28T16:03:19;100710.06;;;14.58;67.47
18504;BME280;9381;54.244;10.074;2023-04-28T16:08:21;100700.28;;;14.45;67.42
18504;BME280;9381;54.244;10.074;2023-04-28T16:13:25;100700.56;;;14.32;68.08
18504;BME280;9381;54.244;10.074;2023-04-28T16:18:26;100689.59;;;14.16;66.96
18504;BME280;9381;54.244;10.074;2023-04-28T16:23:27;100687.25;;;14.08;67.97
18504;BME280;9381;54.244;10.074;2023-04-28T16:28:27;100693.28;;;13.98;67.15
18504;BME280;9381;54.244;10.074;2023-04-28T16:33:27;100692.59;;;13.91;66.35
18504;BME280;9381;54.244;10.074;2023-04-28T16:38:28;100689.06;;;13.79;66.86
18504;BME280;9381;54.244;10.074;2023-04-28T16:43:28;100685.06;;;13.70;69.54
18504;BME280;9381;54.244;10.074;2023-04-28T16:48:28;100682.69;;;13.62;69.45
18504;BME280;9381;54.244;10.074;2023-04-28T16:53:29;100678.81;;;13.47;70.52
18504;BME280;9381;54.244;10.074;2023-04-28T16:58:29;100683.16;;;13.36;71.41
18504;BME280;9381;54.244;10.074;2023-04-28T17:03:30;100674.19;;;13.24;72.32
18504;BME280;9381;54.244;10.074;2023-04-28T17:08:30;100672.41;;;13.18;73.38
18504;BME280;9381;54.244;10.074;2023-04-28T17:13:31;100675.97;;;12.89;76.46
18504;BME280;9381;54.244;10.074;2023-04-28T17:18:32;100676.19;;;12.76;76.09
18504;BME280;9381;54.244;10.074;2023-04-28T17:23:32;100674.72;;;12.62;77.97
18504;BME280;9381;54.244;10.074;2023-04-28T17:28:32;100667.97;;;12.53;78.27
18504;BME280;9381;54.244;10.074;2023-04-28T17:33:33;100666.03;;;12.42;79.11
18504;BME280;9381;54.244;10.074;2023-04-28T17:38:34;100670.41;;;12.43;79.28
18504;BME280;9381;54.244;10.074;2023-04-28T17:43:35;100670.44;;;12.25;80.26
18504;BME280;9381;54.244;10.074;2023-04-28T17:48:36;100671.59;;;12.18;81.08
18504;BME280;9381;54.244;10.074;2023-04-28T17:53:37;100679.94;;;12.16;82.08
18504;BME280;9381;54.244;10.074;2023-04-28T17:58:38;100679.56;;;12.13;83.83
18504;BME280;9381;54.244;10.074;2023-04-28T18:03:38;100687.50;;;12.14;85.73
18504;BME280;9381;54.244;10.074;2023-04-28T18:08:38;100683.75;;;11.97;87.64
18504;BME280;9381;54.244;10.074;2023-04-28T18:13:39;100676.66;;;11.78;90.77
18504;BME280;9381;54.244;10.074;2023-04-28T18:18:40;100680.25;;;11.72;93.07
18504;BME280;9381;54.244;10.074;2023-04-28T18:23:41;100683.91;;;11.84;93.09
18504;BME280;9381;54.244;10.074;2023-04-28T18:28:45;100686.75;;;11.71;94.88
18504;BME280;9381;54.244;10.074;2023-04-28T18:33:47;100690.97;;;11.68;95.91
18504;BME280;9381;54.244;10.074;2023-04-28T18:38:47;100691.84;;;11.62;96.70
18504;BME280;9381;54.244;10.074;2023-04-28T18:43:47;100700.56;;;11.63;97.32
18504;BME280;9381;54.244;10.074;2023-04-28T18:48:47;100687.66;;;11.66;96.94
18504;BME280;9381;54.244;10.074;2023-04-28T18:53:48;100685.72;;;11.48;97.19
18504;BME280;9381;54.244;10.074;2023-04-28T18:58:48;100693.31;;;11.40;99.10
18504;BME280;9381;54.244;10.074;2023-04-28T19:03:48;100687.28;;;11.38;99.21
18504;BME280;9381;54.244;10.074;2023-04-28T19:08:48;100699.13;;;11.19;100.00
18504;BME280;9381;54.244;10.074;2023-04-28T19:13:49;100708.91;;;11.20;100.00
18504;BME280;9381;54.244;10.074;2023-04-28T19:18:49;100712.66;;;11.19;100.00
18504;BME280;9381;54.244;10.074;2023-04-28T19:23:50;100716.38;;;11.18;100.00
18504;BME280;9381;54.244;10.074;2023-04-28T19:28:50;100714.91;;;11.22;100.00
18504;BME280;9381;54.244;10.074;2023-04-28T19:33:50;100714.34;;;11.13;100.00
18504;BME280;9381;54.244;10.074;2023-04-28T19:38:50;100712.53;;;11.07;100.00
18504;BME280;9381;54.244;10.074;2023-04-28T19:43:51;100713.59;;;11.06;100.00
18504;BME280;9381;54.244;10.074;2023-04-28T19:48:51;100710.63;;;11.08;100.00
18504;BME280;9381;54.244;10.074;2023-04-28T19:53:51;100716.75;;;10.97;100.00
18504;BME280;9381;54.244;10.074;2023-04-28T19:58:52;100716.53;;;10.74;100.00
18504;BME280;9381;54.244;10.074;2023-04-28T20:03:53;100719.47;;;10.66;100.00
18504;BME280;9381;54.244;10.074;2023-04-28T20:08:53;100719.00;;;10.75;100.00
18504;BME280;9381;54.244;10.074;2023-04-28T20:13:53;100731.75;;;10.68;100.00
18504;BME280;9381;54.244;10.074;2023-04-28T20:18:54;100723.44;;;10.63;100.00
18504;BME280;9381;54.244;10.074;2023-04-28T20:23:54;100721.53;;;10.70;100.00
18504;BME280;9381;54.244;10.074;2023-04-28T20:28:54;100729.28;;;10.60;100.00
18504;BME280;9381;54.244;10.074;2023-04-28T20:33:56;100715.94;;;10.65;100.00
18504;BME280;9381;54.244;10.074;2023-04-28T20:38:56;100719.09;;;10.62;100.00
18504;BME280;9381;54.244;10.074;2023-04-28T20:43:56;100719.59;;;10.46;100.00
18504;BME280;9381;54.244;10.074;2023-04-28T20:48:57;100719.44;;;10.35;100.00
18504;BME280;9381;54.244;10.074;2023-04-28T20:53:59;100716.50;;;10.36;100.00
18504;BME280;9381;54.244;10.074;2023-04-28T20:59:00;100713.84;;;10.30;100.00
18504;BME280;9381;54.244;10.074;2023-04-28T21:04:00;100713.25;;;10.28;100.00
18504;BME280;9381;54.244;10.074;2023-04-28T21:09:00;100721.97;;;10.30;100.00
18504;BME280;9381;54.244;10.074;2023-04-28T21:14:03;100719.25;;;10.30;100.00
18504;BME280;9381;54.244;10.074;2023-04-28T21:19:03;100722.81;;;10.24;100.00
18504;BME280;9381;54.244;10.074;2023-04-28T21:24:04;100715.31;;;10.26;100.00
18504;BME280;9381;54.244;10.074;2023-04-28T21:29:05;100708.84;;;10.27;100.00
18504;BME280;9381;54.244;10.074;2023-04-28T21:34:05;100708.75;;;10.09;100.00
18504;BME280;9381;54.244;10.074;2023-04-28T21:39:05;100715.81;;;10.10;100.00
18504;BME280;9381;54.244;10.074;2023-04-28T21:44:06;100708.56;;;10.04;100.00
18504;BME280;9381;54.244;10.074;2023-04-28T21:49:06;100710.81;;;10.07;100.00
18504;BME280;9381;54.244;10.074;2023-04-28T21:54:07;100713.28;;;10.15;100.00
18504;BME280;9381;54.244;10.074;2023-04-28T21:59:08;100713.53;;;10.07;100.00
18504;BME280;9381;54.244;10.074;2023-04-28T22:04:08;100716.00;;;10.02;100.00
18504;BME280;9381;54.244;10.074;2023-04-28T22:09:09;100707.50;;;9.98;100.00
18504;BME280;9381;54.244;10.074;2023-04-28T22:14:10;100709.16;;;9.99;100.00
18504;BME280;9381;54.244;10.074;2023-04-28T22:19:10;100713.75;;;10.05;100.00
18504;BME280;9381;54.244;10.074;2023-04-28T22:24:10;100715.81;;;9.97;100.00
18504;BME280;9381;54.244;10.074;2023-04-28T22:29:11;100712.09;;;9.91;100.00
18504;BME280;9381;54.244;10.074;2023-04-28T22:34:12;100717.50;;;9.85;100.00
18504;BME280;9381;54.244;10.074;2023-04-28T22:39:12;100715.00;;;9.90;100.00
18504;BME280;9381;54.244;10.074;2023-04-28T22:44:12;100720.41;;;9.90;100.00
18504;BME280;9381;54.244;10.074;2023-04-28T22:49:12;100708.34;;;9.92;100.00
18504;BME280;9381;54.244;10.074;2023-04-28T22:54:13;100710.88;;;9.81;100.00
18504;BME280;9381;54.244;10.074;2023-04-28T22:59:13;100715.66;;;9.79;100.00
18504;BME280;9381;54.244;10.074;2023-04-28T23:04:13;100718.34;;;9.79;100.00
18504;BME280;9381;54.244;10.074;2023-04-28T23:09:14;100715.47;;;9.74;100.00
18504;BME280;9381;54.244;10.074;2023-04-28T23:14:14;100720.44;;;9.77;100.00
18504;BME280;9381;54.244;10.074;2023-04-28T23:19:14;100722.94;;;9.78;100.00
18504;BME280;9381;54.244;10.074;2023-04-28T23:24:15;100715.44;;;9.80;100.00
18504;BME280;9381;54.244;10.074;2023-04-28T23:29:15;100720.44;;;9.77;100.00
18504;BME280;9381;54.244;10.074;2023-04-28T23:34:16;100731.91;;;9.66;100.00
18504;BME280;9381;54.244;10.074;2023-04-28T23:39:17;100737.50;;;9.64;100.00
18504;BME280;9381;54.244;10.074;2023-04-28T23:44:18;100730.00;;;9.66;100.00
18504;BME280;9381;54.244;10.074;2023-04-28T23:49:18;100723.34;;;9.82;100.00
18504;BME280;9381;54.244;10.074;2023-04-28T23:54:20;100724.59;;;9.66;100.00
18504;BME280;9381;54.244;10.074;2023-04-28T23:59:20;100718.78;;;9.76;100.00
